createdAt,value
2018-02-18T00:01:42.373Z,24.27
2018-02-18T00:04:11.253Z,26.00
2018-02-18T00:06:41.384Z,26.42
2018-02-18T00:09:09.702Z,26.17
2018-02-18T00:11:42.230Z,26.58
2018-02-18T00:14:14.809Z,27.70
2018-02-18T00:16:42.850Z,28.67
2018-02-18T00:19:11.866Z,26.25
2018-02-18T00:21:44.494Z,25.48
2018-02-18T00:24:14.474Z,27.33
2018-02-18T00:26:45.201Z,27.45
2018-02-18T00:29:15.054Z,27.58
2018-02-18T00:31:47.520Z,26.67
2018-02-18T00:34:16.469Z,28.40
2018-02-18T00:36:44.517Z,28.70
2018-02-18T00:39:14.441Z,26.62
2018-02-18T00:41:43.473Z,26.62
2018-02-18T00:44:12.282Z,29.25
2018-02-18T00:46:43.026Z,28.45
2018-02-18T00:49:11.061Z,27.05
2018-02-18T00:51:40.858Z,25.55
2018-02-18T00:54:10.046Z,29.37
2018-02-18T00:56:41.361Z,26.87
2018-02-18T00:59:16.901Z,28.58
2018-02-18T01:01:45.290Z,28.58
2018-02-18T01:04:13.553Z,28.98
2018-02-18T01:06:43.533Z,28.05
2018-02-18T01:09:20.940Z,28.92
2018-02-18T01:11:53.698Z,28.67
2018-02-18T01:14:21.750Z,27.40
2018-02-18T01:16:49.833Z,26.95
2018-02-18T01:19:19.777Z,28.35
2018-02-18T01:21:56.473Z,26.90
2018-02-18T01:24:24.525Z,24.60
2018-02-18T01:26:56.025Z,25.10
2018-02-18T01:29:30.889Z,27.25
2018-02-18T01:31:58.949Z,24.05
2018-02-18T01:34:27.962Z,26.00
2018-02-18T01:36:56.013Z,26.40
2018-02-18T01:39:26.809Z,27.45
2018-02-18T01:41:57.389Z,24.75
2018-02-18T01:44:25.449Z,25.05
2018-02-18T01:47:02.392Z,25.05
2018-02-18T01:49:30.433Z,24.48
2018-02-18T01:51:59.481Z,27.05
2018-02-18T01:54:29.845Z,25.30
2018-02-18T01:56:57.897Z,26.58
2018-02-18T01:59:27.759Z,26.90
2018-02-18T02:01:57.133Z,26.65
2018-02-18T02:04:26.974Z,27.58
2018-02-18T02:06:55.005Z,27.42
2018-02-18T02:09:27.676Z,27.98
2018-02-18T02:12:00.000Z,26.67
2018-02-18T02:14:32.701Z,26.98
2018-02-18T02:17:08.445Z,27.42
2018-02-18T02:19:44.077Z,27.48
2018-02-18T02:22:12.900Z,27.40
2018-02-18T02:24:42.797Z,27.23
2018-02-18T02:27:12.318Z,24.92
2018-02-18T02:29:41.145Z,25.83
2018-02-18T02:32:16.213Z,26.17
2018-02-18T02:34:44.978Z,24.27
2018-02-18T02:37:16.746Z,24.73
2018-02-18T02:39:45.406Z,24.33
2018-02-18T02:42:15.596Z,25.20
2018-02-18T02:44:45.313Z,25.25
2018-02-18T02:47:14.377Z,25.73
2018-02-18T02:49:45.198Z,26.00
2018-02-18T02:52:18.364Z,25.02
2018-02-18T02:54:49.077Z,24.55
2018-02-18T02:57:18.484Z,24.33
2018-02-18T02:59:53.626Z,24.40
2018-02-18T03:02:21.697Z,24.40
2018-02-18T03:04:49.953Z,22.83
2018-02-18T03:07:19.980Z,21.62
2018-02-18T03:09:56.293Z,23.20
2018-02-18T03:12:35.814Z,23.05
2018-02-18T03:15:05.825Z,23.05
2018-02-18T03:17:39.641Z,22.80
2018-02-18T03:20:09.761Z,21.55
2018-02-18T03:22:38.721Z,23.58
2018-02-18T03:25:08.684Z,21.27
2018-02-18T03:27:37.512Z,20.77
2018-02-18T03:30:07.474Z,21.02
2018-02-18T03:32:37.437Z,19.85
2018-02-18T03:35:08.692Z,20.67
2018-02-18T03:37:38.677Z,20.23
2018-02-18T03:40:07.653Z,21.62
2018-02-18T03:42:41.597Z,20.92
2018-02-18T03:45:10.637Z,17.25
2018-02-18T03:47:42.488Z,20.37
2018-02-18T03:50:10.557Z,18.05
2018-02-18T03:52:43.201Z,16.40
2018-02-18T03:55:11.312Z,17.83
2018-02-18T03:57:44.773Z,17.87
2018-02-18T04:00:12.852Z,17.40
2018-02-18T04:02:40.918Z,16.62
2018-02-18T04:05:12.021Z,18.70
2018-02-18T04:07:41.856Z,19.65
2018-02-18T04:10:13.708Z,22.60
2018-02-18T04:12:43.689Z,19.52
2018-02-18T04:15:11.748Z,21.83
2018-02-18T04:17:39.784Z,20.83
2018-02-18T04:20:07.856Z,20.65
2018-02-18T04:22:40.520Z,19.10
2018-02-18T04:25:09.513Z,17.60
2018-02-18T04:27:37.888Z,19.15
2018-02-18T04:30:05.958Z,21.25
2018-02-18T04:32:37.684Z,18.23
2018-02-18T04:35:06.700Z,16.90
2018-02-18T04:37:35.673Z,14.05
2018-02-18T04:40:04.489Z,15.50
2018-02-18T04:42:33.444Z,17.37
2018-02-18T04:45:01.472Z,15.38
2018-02-18T04:47:32.728Z,18.83
2018-02-18T04:50:00.796Z,17.62
2018-02-18T04:52:28.912Z,18.33
2018-02-18T04:54:57.716Z,17.67
2018-02-18T04:57:29.388Z,18.15
2018-02-18T05:00:01.255Z,19.10
2018-02-18T05:02:30.204Z,19.52
2018-02-18T05:05:02.112Z,19.00
2018-02-18T05:07:30.136Z,16.90
2018-02-18T05:10:00.076Z,17.87
2018-02-18T05:12:42.140Z,15.55
2018-02-18T05:15:11.132Z,17.77
2018-02-18T05:17:43.768Z,16.00
2018-02-18T05:20:18.148Z,17.20
2018-02-18T05:22:47.943Z,19.33
2018-02-18T05:25:16.032Z,19.40
2018-02-18T05:27:44.076Z,16.95
2018-02-18T05:30:12.139Z,17.20
2018-02-18T05:32:43.444Z,14.95
2018-02-18T05:35:12.404Z,15.45
2018-02-18T05:37:45.824Z,17.30
2018-02-18T05:40:19.624Z,16.67
2018-02-18T05:42:50.944Z,14.48
2018-02-18T05:45:30.803Z,14.85
2018-02-18T05:48:07.236Z,15.00
2018-02-18T05:50:37.184Z,14.95
2018-02-18T05:53:07.124Z,15.65
2018-02-18T05:55:43.323Z,13.95
2018-02-18T06:01:12.941Z,13.48
2018-02-18T06:03:43.692Z,15.15
2018-02-18T06:06:14.864Z,14.50
2018-02-18T06:08:43.696Z,15.05
2018-02-18T06:11:17.550Z,15.05
2018-02-18T06:13:45.659Z,14.60
2018-02-18T06:19:28.629Z,16.00
2018-02-18T06:21:56.676Z,15.55
2018-02-18T06:24:29.964Z,13.65
2018-02-18T06:27:01.725Z,15.20
2018-02-18T06:29:31.739Z,13.10
2018-02-18T06:32:03.140Z,14.27
2018-02-18T06:34:43.460Z,16.90
2018-02-18T06:37:15.271Z,15.65
2018-02-18T06:39:43.536Z,14.77
2018-02-18T06:42:17.264Z,15.32
2018-02-18T06:44:47.743Z,14.38
2018-02-18T06:47:18.775Z,13.68
2018-02-18T06:49:46.871Z,15.45
2018-02-18T06:52:33.572Z,14.85
2018-02-18T06:55:09.787Z,13.60
2018-02-18T06:57:46.480Z,14.00
2018-02-18T07:00:37.398Z,13.40
2018-02-18T07:03:10.444Z,15.25
2018-02-18T07:05:42.356Z,15.77
2018-02-18T07:08:11.483Z,14.75
2018-02-18T07:10:43.071Z,14.23
2018-02-18T07:13:17.496Z,15.30
2018-02-18T07:15:45.584Z,15.80
2018-02-18T07:18:13.683Z,17.95
2018-02-18T07:20:46.131Z,17.15
2018-02-18T07:23:17.863Z,16.83
2018-02-18T07:25:51.356Z,21.20
2018-02-18T07:28:21.342Z,21.12
2018-02-18T07:30:50.143Z,19.87
2018-02-18T07:33:22.983Z,18.90
2018-02-18T07:35:55.667Z,24.95
2018-02-18T07:38:28.271Z,22.52
2018-02-18T07:41:08.803Z,22.10
2018-02-18T07:43:36.855Z,24.23
2018-02-18T07:46:05.811Z,27.45
2018-02-18T07:48:33.835Z,23.73
2018-02-18T07:51:01.911Z,24.65
2018-02-18T07:53:29.928Z,27.10
2018-02-18T07:55:58.047Z,24.52
2018-02-18T07:58:26.083Z,23.48
2018-02-18T08:00:59.407Z,24.87
2018-02-18T08:03:27.621Z,24.20
2018-02-18T08:05:59.456Z,22.90
2018-02-18T08:08:33.203Z,20.75
2018-02-18T08:11:04.891Z,20.45
2018-02-18T08:13:33.855Z,19.40
2018-02-18T08:16:01.903Z,18.95
2018-02-18T08:18:32.601Z,19.73
2018-02-18T08:21:04.363Z,20.45
2018-02-18T08:23:33.275Z,19.62
2018-02-18T08:26:20.263Z,20.15
2018-02-18T08:28:50.059Z,19.40
2018-02-18T08:31:21.418Z,19.20
2018-02-18T08:33:57.781Z,21.12
2018-02-18T08:36:30.802Z,20.37
2018-02-18T08:38:59.623Z,22.30
2018-02-18T08:41:28.535Z,22.08
2018-02-18T08:43:56.575Z,21.92
2018-02-18T08:46:36.255Z,22.95
2018-02-18T08:49:04.355Z,24.08
2018-02-18T08:51:33.195Z,23.90
2018-02-18T08:54:05.099Z,24.40
2018-02-18T08:56:33.919Z,25.88
2018-02-18T08:59:07.583Z,26.90
2018-02-18T09:01:38.298Z,27.30
2018-02-18T09:04:07.287Z,28.38
2018-02-18T09:06:41.173Z,28.12
2018-02-18T09:09:10.183Z,30.90
2018-02-18T09:11:43.684Z,28.58
2018-02-18T09:14:11.734Z,29.63
2018-02-18T09:16:41.672Z,28.40
2018-02-18T09:19:11.615Z,28.58
2018-02-18T09:21:46.047Z,29.95
2018-02-18T09:24:15.028Z,30.12
2018-02-18T09:26:45.759Z,30.40
2018-02-18T09:29:15.448Z,30.20
2018-02-18T09:31:43.471Z,29.25
2018-02-18T09:34:11.483Z,29.90
2018-02-18T09:36:43.499Z,28.83
2018-02-18T09:39:16.547Z,27.85
2018-02-18T09:41:50.311Z,26.70
2018-02-18T09:44:18.379Z,25.08
2018-02-18T09:46:53.611Z,21.62
2018-02-18T09:49:21.663Z,19.98
2018-02-18T09:51:55.491Z,22.70
2018-02-18T09:54:36.139Z,21.92
2018-02-18T09:57:09.777Z,20.20
2018-02-18T09:59:45.555Z,20.48
2018-02-18T10:02:17.235Z,18.85
2018-02-18T10:04:53.834Z,17.50
2018-02-18T10:07:21.871Z,17.77
2018-02-18T10:09:56.511Z,17.65
2018-02-18T10:12:31.179Z,16.65
2018-02-18T10:15:03.162Z,16.30
2018-02-18T10:17:35.007Z,18.37
2018-02-18T10:20:03.815Z,16.77
2018-02-18T10:22:39.338Z,19.12
2018-02-18T10:25:07.367Z,18.23
2018-02-18T10:27:37.307Z,17.77
2018-02-18T10:30:05.335Z,17.90
2018-02-18T10:32:34.271Z,17.60
2018-02-18T10:35:07.666Z,18.20
2018-02-18T10:37:42.243Z,18.33
2018-02-18T10:40:12.170Z,18.27
2018-02-18T10:42:42.101Z,17.43
2018-02-18T10:45:17.479Z,18.53
2018-02-18T10:47:45.510Z,20.63
2018-02-18T10:50:13.543Z,18.73
2018-02-18T10:52:42.467Z,17.27
2018-02-18T10:55:10.491Z,16.70
2018-02-18T10:57:39.318Z,17.53
2018-02-18T11:00:07.330Z,18.67
2018-02-18T11:02:37.838Z,17.10
2018-02-18T11:05:07.026Z,15.83
2018-02-18T11:07:38.199Z,15.30
2018-02-18T11:10:07.130Z,16.60
2018-02-18T11:12:35.162Z,16.07
2018-02-18T11:15:06.630Z,16.13
2018-02-18T11:17:35.435Z,15.63
2018-02-18T11:20:03.470Z,16.27
2018-02-18T11:22:35.214Z,15.27
2018-02-18T11:25:03.238Z,17.37
2018-02-18T11:27:39.802Z,16.13
2018-02-18T11:30:13.566Z,16.63
2018-02-18T11:32:42.497Z,17.37
2018-02-18T11:35:17.866Z,17.37
2018-02-18T11:37:50.182Z,14.03
2018-02-18T11:40:20.090Z,16.63
2018-02-18T11:42:56.272Z,18.97
2018-02-18T11:45:24.426Z,16.47
2018-02-18T11:47:52.462Z,15.40
2018-02-18T11:50:20.587Z,15.00
2018-02-18T11:52:59.910Z,14.67
2018-02-18T11:55:42.586Z,14.80
2018-02-18T11:58:14.108Z,15.97
2018-02-18T12:00:42.106Z,16.62
2018-02-18T12:03:13.678Z,16.40
2018-02-18T12:05:41.710Z,16.02
2018-02-18T12:08:09.751Z,17.25
2018-02-18T12:10:41.058Z,15.68
2018-02-18T12:13:09.058Z,19.80
2018-02-18T12:15:41.641Z,21.80
2018-02-18T12:18:17.094Z,19.10
2018-02-18T12:20:46.049Z,16.70
2018-02-18T12:23:14.089Z,16.90
2018-02-18T12:25:42.130Z,17.97
2018-02-18T12:28:13.798Z,17.07
2018-02-18T12:30:44.394Z,15.33
2018-02-18T12:33:13.377Z,16.80
2018-02-18T12:35:42.378Z,18.33
2018-02-18T12:38:11.358Z,17.40
2018-02-18T12:40:41.405Z,16.93
2018-02-18T12:43:14.838Z,16.33
2018-02-18T12:45:44.794Z,18.90
2018-02-18T12:48:25.566Z,17.47
2018-02-18T12:50:54.625Z,17.92
2018-02-18T12:53:24.658Z,15.90
2018-02-18T12:55:54.585Z,16.70
2018-02-18T12:58:23.393Z,15.13
2018-02-18T13:01:04.566Z,14.50
2018-02-18T13:03:33.457Z,14.47
2018-02-18T13:06:02.382Z,13.90
2018-02-18T13:08:30.429Z,13.17
2018-02-18T13:11:00.434Z,13.20
2018-02-18T13:13:30.394Z,11.20
2018-02-18T13:16:08.477Z,12.53
2018-02-18T13:18:38.460Z,12.90
2018-02-18T13:21:10.507Z,11.33
2018-02-18T13:23:38.550Z,10.10
2018-02-18T13:26:07.882Z,11.20
2018-02-18T13:28:37.986Z,12.27
2018-02-18T13:31:06.022Z,11.45
2018-02-18T13:33:38.542Z,11.77
2018-02-18T13:36:08.541Z,11.20
2018-02-18T13:38:40.045Z,11.90
2018-02-18T13:41:09.301Z,13.62
2018-02-18T13:43:37.317Z,14.60
2018-02-18T13:46:06.278Z,12.63
2018-02-18T13:48:34.327Z,11.55
2018-02-18T13:51:07.065Z,12.00
2018-02-18T13:53:38.921Z,11.32
2018-02-18T13:56:11.161Z,11.68
2018-02-18T13:58:39.385Z,12.93
2018-02-18T14:01:08.621Z,10.90
2018-02-18T14:03:36.790Z,10.15
2018-02-18T14:06:05.935Z,9.85
2018-02-18T14:08:38.206Z,9.88
2018-02-18T14:11:08.305Z,9.85
2018-02-18T14:13:37.222Z,9.70
2018-02-18T14:16:05.357Z,12.88
2018-02-18T14:18:34.209Z,12.48
2018-02-18T14:21:03.445Z,12.30
2018-02-18T14:23:32.713Z,10.55
2018-02-18T14:26:01.826Z,12.07
2018-02-18T14:28:30.949Z,13.52
2018-02-18T14:31:14.072Z,11.27
2018-02-18T14:33:45.225Z,12.07
2018-02-18T14:36:16.933Z,11.70
2018-02-18T14:38:44.981Z,11.25
2018-02-18T14:41:27.017Z,10.70
2018-02-18T14:44:07.685Z,10.80
2018-02-18T14:46:48.341Z,12.77
2018-02-18T14:49:28.189Z,12.20
2018-02-18T14:52:11.557Z,13.30
2018-02-18T14:57:43.229Z,13.27
2018-02-18T15:00:11.259Z,14.18
2018-02-18T15:02:40.198Z,13.07
2018-02-18T15:05:08.217Z,12.63
2018-02-18T15:07:37.201Z,11.38
2018-02-18T15:10:05.238Z,11.98
2018-02-18T15:12:35.189Z,11.30
2018-02-18T15:15:04.160Z,11.02
2018-02-18T15:17:36.134Z,11.07
2018-02-18T15:20:05.045Z,13.45
2018-02-18T15:22:37.233Z,12.55
2018-02-18T15:25:11.908Z,13.55
2018-02-18T15:27:40.833Z,12.25
2018-02-18T15:30:16.429Z,13.60
2018-02-18T15:32:56.081Z,11.70
2018-02-18T15:35:30.957Z,14.43
2018-02-18T15:37:59.748Z,12.02
2018-02-18T15:40:29.554Z,12.82
2018-02-18T15:42:57.669Z,12.75
2018-02-18T15:45:26.837Z,13.70
2018-02-18T15:47:56.708Z,14.00
2018-02-18T15:50:39.889Z,13.55
2018-02-18T15:53:29.157Z,15.32
2018-02-18T15:56:02.881Z,14.75
2018-02-18T15:58:31.812Z,16.00
2018-02-18T16:00:59.941Z,15.85
2018-02-18T16:03:28.197Z,16.42
2018-02-18T16:05:58.209Z,16.67
2018-02-18T16:08:26.373Z,16.67
2018-02-18T16:10:56.469Z,16.33
2018-02-18T16:13:28.553Z,16.90
2018-02-18T16:15:56.701Z,15.50
2018-02-18T16:18:39.957Z,18.37
2018-02-18T16:21:18.094Z,17.95
2018-02-18T16:23:46.102Z,19.35
2018-02-18T16:26:18.049Z,21.25
2018-02-18T16:28:46.085Z,22.20
2018-02-18T16:31:16.096Z,24.92
2018-02-18T16:33:52.304Z,20.17
2018-02-18T16:36:41.054Z,21.87
2018-02-18T16:39:26.881Z,18.85
2018-02-18T16:41:56.932Z,19.52
2018-02-18T16:44:28.281Z,20.95
2018-02-18T16:47:01.124Z,23.30
2018-02-18T16:49:29.925Z,21.33
2018-02-18T16:52:01.237Z,19.05
2018-02-18T16:54:33.514Z,17.85
2018-02-18T16:57:15.833Z,21.20
2018-02-18T16:59:57.793Z,20.67
2018-02-18T17:02:26.249Z,20.48
2018-02-18T17:05:10.985Z,18.80
2018-02-18T17:07:40.037Z,19.98
2018-02-18T17:10:08.061Z,20.50
2018-02-18T17:12:40.661Z,19.08
2018-02-18T17:15:08.689Z,18.95
2018-02-18T17:17:38.660Z,21.05
2018-02-18T17:20:06.685Z,21.10
2018-02-18T17:22:34.717Z,20.15
2018-02-18T17:28:09.685Z,19.92
2018-02-18T17:30:38.489Z,22.45
2018-02-18T17:33:25.717Z,22.00
2018-02-18T17:35:57.241Z,22.80
2018-02-18T17:38:35.885Z,22.90
2018-02-18T17:41:20.473Z,23.85
2018-02-18T17:43:48.529Z,22.85
2018-02-18T17:46:28.753Z,23.45
2018-02-18T17:48:57.540Z,18.85
2018-02-18T17:51:25.577Z,17.95
2018-02-18T17:54:18.380Z,18.20
2018-02-18T17:57:06.570Z,17.40
2018-02-18T17:59:35.557Z,17.02
2018-02-18T18:02:09.321Z,16.67
2018-02-18T18:04:40.549Z,17.08
2018-02-18T18:07:16.249Z,17.85
2018-02-18T18:09:48.877Z,19.30
2018-02-18T18:12:16.928Z,17.92
2018-02-18T18:14:55.817Z,18.60
2018-02-18T18:17:24.761Z,21.23
2018-02-18T18:19:57.241Z,21.40
2018-02-18T18:22:26.197Z,20.67
2018-02-18T18:24:55.289Z,21.17
2018-02-18T18:27:26.089Z,19.15
2018-02-18T18:29:56.073Z,20.40
2018-02-18T18:32:34.409Z,21.50
2018-02-18T18:35:19.129Z,21.98
2018-02-18T18:37:56.259Z,20.25
2018-02-18T18:40:26.197Z,22.75
2018-02-18T18:42:54.237Z,21.40
2018-02-18T18:45:28.664Z,21.33
2018-02-18T18:47:57.600Z,20.62
2018-02-18T18:50:26.389Z,22.27
2018-02-18T18:52:55.203Z,19.62
2018-02-18T18:55:33.633Z,21.95
2018-02-18T18:58:08.561Z,21.95
2018-02-18T19:00:40.545Z,21.30
2018-02-18T19:03:14.953Z,20.90
2018-02-18T19:05:43.873Z,20.73
2018-02-18T19:08:11.909Z,23.10
2018-02-18T19:10:41.872Z,20.27
2018-02-18T19:13:10.858Z,20.67
2018-02-18T19:15:42.281Z,20.27
2018-02-18T19:18:11.181Z,20.88
2018-02-18T19:20:39.205Z,21.75
2018-02-18T19:23:21.829Z,21.05
2018-02-18T19:25:49.853Z,18.50
2018-02-18T19:28:19.649Z,19.60
2018-02-18T19:30:57.625Z,21.12
2018-02-18T19:33:30.857Z,21.90
2018-02-18T19:36:05.257Z,21.87
2018-02-18T19:38:33.337Z,20.70
2018-02-18T19:41:05.648Z,20.02
2018-02-18T19:43:34.949Z,21.48
2018-02-18T19:46:19.744Z,20.55
2018-02-18T19:48:47.845Z,21.40
2018-02-18T19:51:21.029Z,22.67
2018-02-18T19:53:49.064Z,21.02
2018-02-18T19:56:20.645Z,18.00
2018-02-18T19:58:49.585Z,21.30
2018-02-18T20:01:32.842Z,21.50
2018-02-18T20:04:01.805Z,21.10
2018-02-18T20:06:30.753Z,21.23
2018-02-18T20:09:00.817Z,23.45
2018-02-18T20:11:31.521Z,23.27
2018-02-18T20:14:04.608Z,23.38
2018-02-18T20:16:33.645Z,22.33
2018-02-18T20:19:07.396Z,22.90
2018-02-18T20:21:40.077Z,24.02
2018-02-18T20:24:09.093Z,23.40
2018-02-18T20:26:39.094Z,21.98
2018-02-18T20:29:08.084Z,22.50
2018-02-18T20:31:36.888Z,22.65
2018-02-18T20:34:05.688Z,23.45
2018-02-18T20:36:38.624Z,22.40
2018-02-18T20:39:06.668Z,22.35
2018-02-18T20:41:40.281Z,22.08
2018-02-18T20:44:14.118Z,22.40
2018-02-18T20:46:43.112Z,21.60
2018-02-18T20:49:20.256Z,20.10
2018-02-18T20:51:49.276Z,20.50
2018-02-18T20:54:17.312Z,21.02
2018-02-18T20:56:55.664Z,21.52
2018-02-18T20:59:23.688Z,21.62
2018-02-18T21:01:51.740Z,21.27
2018-02-18T21:04:19.813Z,23.58
2018-02-18T21:06:58.132Z,22.80
2018-02-18T21:09:26.892Z,23.08
2018-02-18T21:11:55.924Z,25.02
2018-02-18T21:14:27.673Z,22.95
2018-02-18T21:16:55.724Z,23.98
2018-02-18T21:19:24.680Z,21.67
2018-02-18T21:21:52.736Z,24.27
2018-02-18T21:24:20.784Z,22.58
2018-02-18T21:29:47.812Z,22.90
2018-02-18T21:32:27.163Z,22.70
2018-02-18T21:34:56.096Z,25.58
2018-02-18T21:37:29.712Z,22.95
2018-02-18T21:39:57.772Z,24.30
2018-02-18T21:42:35.660Z,23.23
2018-02-18T21:45:07.603Z,22.83
2018-02-18T21:47:53.684Z,22.52
2018-02-18T21:50:21.780Z,20.65
2018-02-18T21:52:49.807Z,22.40
2018-02-18T21:55:17.856Z,23.42
2018-02-18T21:57:46.663Z,20.20
2018-02-18T22:00:14.720Z,22.05
2018-02-18T22:02:47.031Z,22.20
2018-02-18T22:05:16.032Z,19.55
2018-02-18T22:07:45.080Z,21.17
2018-02-18T22:10:16.436Z,22.27
2018-02-18T22:12:48.320Z,23.00
2018-02-18T22:23:06.968Z,21.10
2018-02-18T22:25:37.928Z,20.65
2018-02-18T22:28:07.873Z,21.08
2018-02-18T22:30:37.866Z,19.62
2018-02-18T22:33:06.675Z,20.90
2018-02-18T22:35:34.758Z,19.45
2018-02-18T22:38:03.036Z,19.25
2018-02-18T22:43:04.891Z,19.73
2018-02-18T22:45:33.848Z,18.60
2018-02-18T22:48:01.908Z,19.20
2018-02-18T22:50:30.943Z,19.58
2018-02-18T22:53:03.286Z,18.00
2018-02-18T22:55:31.380Z,17.50
2018-02-18T22:58:12.517Z,17.33
2018-02-18T23:00:41.524Z,18.02
2018-02-18T23:03:11.411Z,18.80
2018-02-18T23:05:46.191Z,17.60
2018-02-18T23:08:20.363Z,18.55
2018-02-18T23:10:48.416Z,18.73
2018-02-18T23:13:28.084Z,19.40
2018-02-18T23:15:57.228Z,19.25
2018-02-18T23:18:25.507Z,21.20
2018-02-18T23:21:08.647Z,17.30
2018-02-18T23:23:37.603Z,17.98
2018-02-18T23:26:06.627Z,18.08
2018-02-18T23:28:35.723Z,17.27
2018-02-18T23:31:05.716Z,19.87
2018-02-18T23:33:36.700Z,18.62
2018-02-18T23:36:12.184Z,19.10
2018-02-18T23:38:41.179Z,20.90
2018-02-18T23:41:16.839Z,19.52
2018-02-18T23:43:44.891Z,19.45
2018-02-18T23:46:23.187Z,18.73
2018-02-18T23:48:53.808Z,18.85
2018-02-18T23:51:28.535Z,17.83
2018-02-18T23:53:57.595Z,17.33
2018-02-18T23:56:30.444Z,16.98
2018-02-18T23:59:00.517Z,18.60
